sensor_id;sensor_type;location;lat;lon;timestamp;P1;durP1;ratioP1;P2;durP2;ratioP2
21987;SDS011;11158;53.404;-1.510;2023-01-05T00:01:42;7.53;;;1.80;;
21987;SDS011;11158;53.404;-1.510;2023-01-05T00:04:08;5.40;;;1.88;;
21987;SDS011;11158;53.404;-1.510;2023-01-05T00:06:35;6.55;;;1.90;;
21987;SDS011;11158;53.404;-1.510;2023-01-05T00:09:02;6.88;;;1.92;;
21987;SDS011;11158;53.404;-1.510;2023-01-05T00:11:28;6.25;;;1.98;;
21987;SDS011;11158;53.404;-1.510;2023-01-05T00:14:13;8.40;;;2.10;;
21987;SDS011;11158;53.404;-1.510;2023-01-05T00:17:01;6.53;;;1.70;;
21987;SDS011;11158;53.404;-1.510;2023-01-05T00:19:46;6.03;;;1.90;;
21987;SDS011;11158;53.404;-1.510;2023-01-05T00:22:48;7.45;;;1.35;;
21987;SDS011;11158;53.404;-1.510;2023-01-05T00:25:22;5.82;;;1.48;;
21987;SDS011;11158;53.404;-1.510;2023-01-05T00:27:49;8.45;;;1.30;;
21987;SDS011;11158;53.404;-1.510;2023-01-05T00:30:19;8.23;;;1.48;;
21987;SDS011;11158;53.404;-1.510;2023-01-05T00:32:47;4.45;;;1.77;;
21987;SDS011;11158;53.404;-1.510;2023-01-05T00:35:14;3.53;;;1.40;;
21987;SDS011;11158;53.404;-1.510;2023-01-05T00:37:40;5.38;;;1.73;;
21987;SDS011;11158;53.404;-1.510;2023-01-05T00:40:14;9.85;;;1.63;;
21987;SDS011;11158;53.404;-1.510;2023-01-05T00:42:41;6.30;;;1.67;;
21987;SDS011;11158;53.404;-1.510;2023-01-05T00:45:10;5.50;;;1.13;;
21987;SDS011;11158;53.404;-1.510;2023-01-05T00:47:38;6.93;;;1.40;;
21987;SDS011;11158;53.404;-1.510;2023-01-05T00:50:04;6.30;;;1.35;;
21987;SDS011;11158;53.404;-1.510;2023-01-05T00:52:30;8.70;;;1.70;;
21987;SDS011;11158;53.404;-1.510;2023-01-05T00:54:58;4.57;;;1.38;;
21987;SDS011;11158;53.404;-1.510;2023-01-05T00:57:24;5.50;;;1.02;;
21987;SDS011;11158;53.404;-1.510;2023-01-05T00:59:51;4.05;;;1.15;;
21987;SDS011;11158;53.404;-1.510;2023-01-05T01:02:17;5.10;;;1.38;;
21987;SDS011;11158;53.404;-1.510;2023-01-05T01:04:42;5.63;;;1.27;;
21987;SDS011;11158;53.404;-1.510;2023-01-05T01:07:08;5.65;;;1.50;;
21987;SDS011;11158;53.404;-1.510;2023-01-05T01:09:34;8.55;;;1.30;;
21987;SDS011;11158;53.404;-1.510;2023-01-05T01:12:01;8.32;;;1.80;;
21987;SDS011;11158;53.404;-1.510;2023-01-05T01:14:28;9.05;;;1.90;;
21987;SDS011;11158;53.404;-1.510;2023-01-05T01:16:53;8.00;;;1.70;;
21987;SDS011;11158;53.404;-1.510;2023-01-05T01:19:23;7.55;;;1.80;;
21987;SDS011;11158;53.404;-1.510;2023-01-05T01:21:50;10.60;;;1.75;;
21987;SDS011;11158;53.404;-1.510;2023-01-05T01:24:20;7.53;;;1.40;;
21987;SDS011;11158;53.404;-1.510;2023-01-05T01:26:49;6.95;;;1.60;;
21987;SDS011;11158;53.404;-1.510;2023-01-05T01:29:15;10.55;;;1.83;;
21987;SDS011;11158;53.404;-1.510;2023-01-05T01:31:46;10.38;;;1.67;;
21987;SDS011;11158;53.404;-1.510;2023-01-05T01:34:12;6.68;;;1.55;;
21987;SDS011;11158;53.404;-1.510;2023-01-05T01:36:39;8.30;;;2.08;;
21987;SDS011;11158;53.404;-1.510;2023-01-05T01:39:05;8.00;;;1.52;;
21987;SDS011;11158;53.404;-1.510;2023-01-05T01:41:31;5.03;;;1.55;;
21987;SDS011;11158;53.404;-1.510;2023-01-05T01:43:57;5.47;;;1.65;;
21987;SDS011;11158;53.404;-1.510;2023-01-05T01:46:24;7.35;;;2.00;;
21987;SDS011;11158;53.404;-1.510;2023-01-05T01:48:55;9.65;;;1.75;;
21987;SDS011;11158;53.404;-1.510;2023-01-05T01:51:31;8.20;;;1.70;;
21987;SDS011;11158;53.404;-1.510;2023-01-05T01:54:04;7.80;;;2.20;;
21987;SDS011;11158;53.404;-1.510;2023-01-05T01:56:35;6.55;;;1.60;;
21987;SDS011;11158;53.404;-1.510;2023-01-05T01:59:06;7.18;;;1.98;;
21987;SDS011;11158;53.404;-1.510;2023-01-05T02:01:34;6.97;;;1.83;;
21987;SDS011;11158;53.404;-1.510;2023-01-05T02:04:00;9.32;;;1.48;;
21987;SDS011;11158;53.404;-1.510;2023-01-05T02:06:28;12.93;;;2.25;;
21987;SDS011;11158;53.404;-1.510;2023-01-05T02:08:53;8.38;;;1.58;;
21987;SDS011;11158;53.404;-1.510;2023-01-05T02:16:59;6.95;;;1.70;;
21987;SDS011;11158;53.404;-1.510;2023-01-05T02:27:19;5.65;;;1.45;;
21987;SDS011;11158;53.404;-1.510;2023-01-05T02:38:16;9.73;;;1.73;;
21987;SDS011;11158;53.404;-1.510;2023-01-05T02:40:59;6.55;;;1.80;;
21987;SDS011;11158;53.404;-1.510;2023-01-05T02:43:32;10.07;;;2.10;;
21987;SDS011;11158;53.404;-1.510;2023-01-05T02:45:58;7.35;;;1.70;;
21987;SDS011;11158;53.404;-1.510;2023-01-05T02:48:24;9.10;;;1.90;;
21987;SDS011;11158;53.404;-1.510;2023-01-05T02:50:54;12.40;;;1.85;;
21987;SDS011;11158;53.404;-1.510;2023-01-05T02:53:32;7.75;;;2.05;;
21987;SDS011;11158;53.404;-1.510;2023-01-05T02:56:03;6.18;;;1.30;;
21987;SDS011;11158;53.404;-1.510;2023-01-05T02:58:39;6.32;;;1.48;;
21987;SDS011;11158;53.404;-1.510;2023-01-05T03:01:10;9.73;;;1.88;;
21987;SDS011;11158;53.404;-1.510;2023-01-05T03:03:45;7.90;;;2.05;;
21987;SDS011;11158;53.404;-1.510;2023-01-05T03:06:51;8.18;;;1.50;;
21987;SDS011;11158;53.404;-1.510;2023-01-05T03:09:40;7.03;;;1.95;;
21987;SDS011;11158;53.404;-1.510;2023-01-05T03:12:17;8.75;;;2.03;;
21987;SDS011;11158;53.404;-1.510;2023-01-05T03:15:26;7.13;;;1.42;;
21987;SDS011;11158;53.404;-1.510;2023-01-05T03:17:56;12.20;;;1.92;;
21987;SDS011;11158;53.404;-1.510;2023-01-05T03:20:25;7.93;;;1.65;;
21987;SDS011;11158;53.404;-1.510;2023-01-05T03:22:54;12.23;;;2.00;;
21987;SDS011;11158;53.404;-1.510;2023-01-05T03:25:40;10.23;;;1.85;;
21987;SDS011;11158;53.404;-1.510;2023-01-05T03:28:29;8.57;;;1.52;;
21987;SDS011;11158;53.404;-1.510;2023-01-05T03:34:18;9.57;;;1.92;;
21987;SDS011;11158;53.404;-1.510;2023-01-05T03:37:12;9.10;;;1.65;;
21987;SDS011;11158;53.404;-1.510;2023-01-05T03:39:42;5.25;;;1.67;;
21987;SDS011;11158;53.404;-1.510;2023-01-05T03:42:10;5.88;;;1.50;;
21987;SDS011;11158;53.404;-1.510;2023-01-05T03:44:38;8.55;;;1.73;;
21987;SDS011;11158;53.404;-1.510;2023-01-05T03:47:05;8.68;;;1.50;;
21987;SDS011;11158;53.404;-1.510;2023-01-05T03:49:31;6.07;;;1.52;;
21987;SDS011;11158;53.404;-1.510;2023-01-05T03:51:56;5.82;;;1.80;;
21987;SDS011;11158;53.404;-1.510;2023-01-05T03:54:22;7.50;;;2.00;;
21987;SDS011;11158;53.404;-1.510;2023-01-05T03:56:48;4.82;;;1.55;;
21987;SDS011;11158;53.404;-1.510;2023-01-05T03:59:13;8.60;;;1.58;;
21987;SDS011;11158;53.404;-1.510;2023-01-05T04:01:40;5.88;;;1.48;;
21987;SDS011;11158;53.404;-1.510;2023-01-05T04:04:05;6.68;;;1.42;;
21987;SDS011;11158;53.404;-1.510;2023-01-05T04:06:31;8.35;;;2.08;;
21987;SDS011;11158;53.404;-1.510;2023-01-05T04:08:57;6.75;;;1.92;;
21987;SDS011;11158;53.404;-1.510;2023-01-05T04:11:23;9.77;;;1.77;;
21987;SDS011;11158;53.404;-1.510;2023-01-05T04:13:48;8.98;;;1.63;;
21987;SDS011;11158;53.404;-1.510;2023-01-05T04:16:16;7.40;;;1.60;;
21987;SDS011;11158;53.404;-1.510;2023-01-05T04:18:42;9.20;;;1.52;;
21987;SDS011;11158;53.404;-1.510;2023-01-05T04:21:17;4.85;;;1.50;;
21987;SDS011;11158;53.404;-1.510;2023-01-05T04:23:44;6.15;;;1.48;;
21987;SDS011;11158;53.404;-1.510;2023-01-05T04:26:09;4.97;;;1.27;;
21987;SDS011;11158;53.404;-1.510;2023-01-05T04:28:43;7.90;;;1.70;;
21987;SDS011;11158;53.404;-1.510;2023-01-05T04:31:09;6.50;;;1.65;;
21987;SDS011;11158;53.404;-1.510;2023-01-05T04:33:35;6.28;;;1.55;;
21987;SDS011;11158;53.404;-1.510;2023-01-05T04:36:05;6.57;;;1.27;;
21987;SDS011;11158;53.404;-1.510;2023-01-05T04:38:31;5.43;;;1.17;;
21987;SDS011;11158;53.404;-1.510;2023-01-05T04:40:57;9.27;;;1.35;;
21987;SDS011;11158;53.404;-1.510;2023-01-05T04:43:23;7.95;;;1.90;;
21987;SDS011;11158;53.404;-1.510;2023-01-05T04:45:50;7.50;;;1.48;;
21987;SDS011;11158;53.404;-1.510;2023-01-05T04:48:16;7.07;;;1.67;;
21987;SDS011;11158;53.404;-1.510;2023-01-05T04:50:42;7.45;;;1.42;;
21987;SDS011;11158;53.404;-1.510;2023-01-05T04:53:08;5.05;;;1.40;;
21987;SDS011;11158;53.404;-1.510;2023-01-05T04:55:35;10.45;;;1.60;;
21987;SDS011;11158;53.404;-1.510;2023-01-05T04:58:01;5.68;;;1.20;;
21987;SDS011;11158;53.404;-1.510;2023-01-05T05:00:27;7.38;;;1.60;;
21987;SDS011;11158;53.404;-1.510;2023-01-05T05:02:56;6.25;;;1.33;;
21987;SDS011;11158;53.404;-1.510;2023-01-05T05:05:21;4.60;;;1.38;;
21987;SDS011;11158;53.404;-1.510;2023-01-05T05:07:47;6.45;;;1.70;;
21987;SDS011;11158;53.404;-1.510;2023-01-05T05:10:13;7.93;;;1.80;;
21987;SDS011;11158;53.404;-1.510;2023-01-05T05:12:42;5.80;;;1.50;;
21987;SDS011;11158;53.404;-1.510;2023-01-05T05:15:08;6.88;;;1.73;;
21987;SDS011;11158;53.404;-1.510;2023-01-05T05:17:34;8.52;;;1.80;;
21987;SDS011;11158;53.404;-1.510;2023-01-05T05:19:59;7.60;;;1.45;;
21987;SDS011;11158;53.404;-1.510;2023-01-05T05:22:25;9.48;;;1.70;;
21987;SDS011;11158;53.404;-1.510;2023-01-05T05:24:52;7.32;;;2.53;;
21987;SDS011;11158;53.404;-1.510;2023-01-05T05:27:17;7.70;;;1.67;;
21987;SDS011;11158;53.404;-1.510;2023-01-05T05:29:43;4.72;;;1.70;;
21987;SDS011;11158;53.404;-1.510;2023-01-05T05:32:09;8.50;;;2.13;;
21987;SDS011;11158;53.404;-1.510;2023-01-05T05:34:35;8.00;;;2.13;;
21987;SDS011;11158;53.404;-1.510;2023-01-05T05:37:01;8.43;;;2.35;;
21987;SDS011;11158;53.404;-1.510;2023-01-05T05:39:27;8.55;;;2.10;;
21987;SDS011;11158;53.404;-1.510;2023-01-05T05:41:52;5.15;;;1.55;;
21987;SDS011;11158;53.404;-1.510;2023-01-05T05:44:18;6.75;;;1.83;;
21987;SDS011;11158;53.404;-1.510;2023-01-05T05:46:44;11.70;;;2.40;;
21987;SDS011;11158;53.404;-1.510;2023-01-05T05:49:10;7.75;;;2.25;;
21987;SDS011;11158;53.404;-1.510;2023-01-05T05:51:35;6.88;;;2.15;;
21987;SDS011;11158;53.404;-1.510;2023-01-05T05:54:01;6.65;;;1.80;;
21987;SDS011;11158;53.404;-1.510;2023-01-05T05:56:26;9.15;;;2.60;;
21987;SDS011;11158;53.404;-1.510;2023-01-05T05:58:52;6.53;;;1.67;;
21987;SDS011;11158;53.404;-1.510;2023-01-05T06:01:18;8.30;;;1.95;;
21987;SDS011;11158;53.404;-1.510;2023-01-05T06:03:43;6.85;;;1.67;;
21987;SDS011;11158;53.404;-1.510;2023-01-05T06:06:09;9.20;;;2.08;;
21987;SDS011;11158;53.404;-1.510;2023-01-05T06:08:35;11.65;;;1.95;;
21987;SDS011;11158;53.404;-1.510;2023-01-05T06:11:01;13.77;;;2.30;;
21987;SDS011;11158;53.404;-1.510;2023-01-05T06:13:27;9.77;;;1.85;;
21987;SDS011;11158;53.404;-1.510;2023-01-05T06:15:53;11.32;;;1.95;;
21987;SDS011;11158;53.404;-1.510;2023-01-05T06:18:19;7.72;;;2.00;;
21987;SDS011;11158;53.404;-1.510;2023-01-05T06:20:45;13.82;;;6.50;;
21987;SDS011;11158;53.404;-1.510;2023-01-05T06:23:11;6.30;;;1.60;;
21987;SDS011;11158;53.404;-1.510;2023-01-05T06:25:36;11.23;;;2.30;;
21987;SDS011;11158;53.404;-1.510;2023-01-05T06:28:05;11.10;;;1.83;;
21987;SDS011;11158;53.404;-1.510;2023-01-05T06:30:31;9.80;;;1.92;;
21987;SDS011;11158;53.404;-1.510;2023-01-05T06:32:56;10.80;;;2.35;;
21987;SDS011;11158;53.404;-1.510;2023-01-05T06:35:22;8.55;;;2.03;;
21987;SDS011;11158;53.404;-1.510;2023-01-05T06:37:48;11.63;;;2.55;;
21987;SDS011;11158;53.404;-1.510;2023-01-05T06:40:14;8.93;;;1.90;;
21987;SDS011;11158;53.404;-1.510;2023-01-05T06:42:40;10.32;;;2.70;;
21987;SDS011;11158;53.404;-1.510;2023-01-05T06:45:07;9.32;;;2.20;;
21987;SDS011;11158;53.404;-1.510;2023-01-05T06:47:36;4.35;;;1.75;;
21987;SDS011;11158;53.404;-1.510;2023-01-05T06:50:02;14.20;;;2.28;;
21987;SDS011;11158;53.404;-1.510;2023-01-05T06:52:27;12.73;;;2.25;;
21987;SDS011;11158;53.404;-1.510;2023-01-05T06:54:53;9.75;;;2.08;;
21987;SDS011;11158;53.404;-1.510;2023-01-05T06:57:19;6.85;;;1.55;;
21987;SDS011;11158;53.404;-1.510;2023-01-05T06:59:45;10.65;;;2.08;;
21987;SDS011;11158;53.404;-1.510;2023-01-05T07:02:14;8.55;;;2.28;;
21987;SDS011;11158;53.404;-1.510;2023-01-05T07:04:41;5.70;;;1.45;;
21987;SDS011;11158;53.404;-1.510;2023-01-05T07:07:09;7.47;;;1.77;;
21987;SDS011;11158;53.404;-1.510;2023-01-05T07:09:37;9.05;;;1.77;;
21987;SDS011;11158;53.404;-1.510;2023-01-05T07:12:03;14.35;;;2.38;;
21987;SDS011;11158;53.404;-1.510;2023-01-05T07:14:29;6.68;;;2.13;;
21987;SDS011;11158;53.404;-1.510;2023-01-05T07:16:55;6.95;;;1.80;;
21987;SDS011;11158;53.404;-1.510;2023-01-05T07:19:21;8.13;;;1.70;;
21987;SDS011;11158;53.404;-1.510;2023-01-05T07:21:47;9.85;;;2.30;;
21987;SDS011;11158;53.404;-1.510;2023-01-05T07:24:13;8.70;;;1.90;;
21987;SDS011;11158;53.404;-1.510;2023-01-05T07:26:39;7.82;;;1.90;;
21987;SDS011;11158;53.404;-1.510;2023-01-05T07:29:05;10.52;;;2.28;;
21987;SDS011;11158;53.404;-1.510;2023-01-05T07:31:32;11.02;;;2.65;;
21987;SDS011;11158;53.404;-1.510;2023-01-05T07:33:57;9.43;;;2.28;;
21987;SDS011;11158;53.404;-1.510;2023-01-05T07:36:23;6.30;;;1.52;;
21987;SDS011;11158;53.404;-1.510;2023-01-05T07:38:50;12.13;;;2.40;;
21987;SDS011;11158;53.404;-1.510;2023-01-05T07:41:17;7.03;;;1.90;;
21987;SDS011;11158;53.404;-1.510;2023-01-05T07:43:43;11.93;;;1.88;;
21987;SDS011;11158;53.404;-1.510;2023-01-05T07:46:13;9.55;;;1.92;;
21987;SDS011;11158;53.404;-1.510;2023-01-05T07:48:40;12.55;;;2.50;;
21987;SDS011;11158;53.404;-1.510;2023-01-05T07:51:06;8.00;;;2.13;;
21987;SDS011;11158;53.404;-1.510;2023-01-05T07:53:33;14.85;;;2.80;;
21987;SDS011;11158;53.404;-1.510;2023-01-05T07:56:01;8.65;;;2.00;;
21987;SDS011;11158;53.404;-1.510;2023-01-05T07:58:27;14.00;;;2.58;;
21987;SDS011;11158;53.404;-1.510;2023-01-05T08:00:54;12.82;;;3.13;;
21987;SDS011;11158;53.404;-1.510;2023-01-05T08:03:20;12.50;;;2.08;;
21987;SDS011;11158;53.404;-1.510;2023-01-05T08:05:46;9.55;;;2.42;;
21987;SDS011;11158;53.404;-1.510;2023-01-05T08:08:12;10.20;;;2.75;;
21987;SDS011;11158;53.404;-1.510;2023-01-05T08:10:42;11.65;;;2.30;;
21987;SDS011;11158;53.404;-1.510;2023-01-05T08:13:09;11.10;;;2.45;;
21987;SDS011;11158;53.404;-1.510;2023-01-05T08:15:54;7.93;;;2.22;;
21987;SDS011;11158;53.404;-1.510;2023-01-05T08:18:22;11.52;;;2.55;;
21987;SDS011;11158;53.404;-1.510;2023-01-05T08:20:50;12.40;;;2.47;;
21987;SDS011;11158;53.404;-1.510;2023-01-05T08:23:23;9.73;;;2.35;;
21987;SDS011;11158;53.404;-1.510;2023-01-05T08:25:51;11.65;;;2.92;;
21987;SDS011;11158;53.404;-1.510;2023-01-05T08:28:17;9.70;;;2.42;;
21987;SDS011;11158;53.404;-1.510;2023-01-05T08:30:43;13.38;;;2.60;;
21987;SDS011;11158;53.404;-1.510;2023-01-05T08:33:09;9.98;;;2.70;;
21987;SDS011;11158;53.404;-1.510;2023-01-05T08:35:38;14.45;;;3.30;;
21987;SDS011;11158;53.404;-1.510;2023-01-05T08:38:05;16.40;;;3.65;;
21987;SDS011;11158;53.404;-1.510;2023-01-05T08:40:31;16.58;;;4.20;;
21987;SDS011;11158;53.404;-1.510;2023-01-05T08:42:57;16.30;;;5.40;;
21987;SDS011;11158;53.404;-1.510;2023-01-05T08:45:22;19.42;;;4.50;;
21987;SDS011;11158;53.404;-1.510;2023-01-05T08:47:48;21.63;;;4.30;;
21987;SDS011;11158;53.404;-1.510;2023-01-05T08:50:14;22.65;;;4.00;;
21987;SDS011;11158;53.404;-1.510;2023-01-05T08:52:39;14.65;;;4.20;;
21987;SDS011;11158;53.404;-1.510;2023-01-05T08:55:06;20.00;;;4.40;;
21987;SDS011;11158;53.404;-1.510;2023-01-05T08:57:32;16.77;;;4.10;;
21987;SDS011;11158;53.404;-1.510;2023-01-05T08:59:59;12.75;;;3.67;;
21987;SDS011;11158;53.404;-1.510;2023-01-05T09:02:25;16.35;;;3.75;;
21987;SDS011;11158;53.404;-1.510;2023-01-05T09:04:51;14.68;;;2.90;;
21987;SDS011;11158;53.404;-1.510;2023-01-05T09:07:17;17.73;;;3.35;;
21987;SDS011;11158;53.404;-1.510;2023-01-05T09:09:44;11.90;;;3.25;;
21987;SDS011;11158;53.404;-1.510;2023-01-05T09:12:10;13.93;;;3.25;;
21987;SDS011;11158;53.404;-1.510;2023-01-05T09:14:36;17.85;;;3.78;;
21987;SDS011;11158;53.404;-1.510;2023-01-05T09:17:03;16.63;;;3.42;;
21987;SDS011;11158;53.404;-1.510;2023-01-05T09:19:29;17.30;;;3.60;;
21987;SDS011;11158;53.404;-1.510;2023-01-05T09:21:55;20.50;;;3.78;;
21987;SDS011;11158;53.404;-1.510;2023-01-05T09:24:20;18.10;;;4.55;;
21987;SDS011;11158;53.404;-1.510;2023-01-05T09:26:48;17.02;;;4.35;;
21987;SDS011;11158;53.404;-1.510;2023-01-05T09:29:14;15.73;;;4.55;;
21987;SDS011;11158;53.404;-1.510;2023-01-05T09:31:41;19.08;;;4.55;;
21987;SDS011;11158;53.404;-1.510;2023-01-05T09:34:08;17.92;;;3.90;;
21987;SDS011;11158;53.404;-1.510;2023-01-05T09:36:35;17.27;;;5.40;;
21987;SDS011;11158;53.404;-1.510;2023-01-05T09:39:01;26.38;;;7.78;;
21987;SDS011;11158;53.404;-1.510;2023-01-05T09:44:23;15.90;;;6.10;;
21987;SDS011;11158;53.404;-1.510;2023-01-05T09:46:55;15.45;;;4.75;;
21987;SDS011;11158;53.404;-1.510;2023-01-05T09:49:25;21.48;;;4.80;;
21987;SDS011;11158;53.404;-1.510;2023-01-05T09:51:54;14.13;;;4.15;;
21987;SDS011;11158;53.404;-1.510;2023-01-05T09:54:27;14.77;;;4.93;;
21987;SDS011;11158;53.404;-1.510;2023-01-05T09:56:57;16.58;;;4.38;;
21987;SDS011;11158;53.404;-1.510;2023-01-05T09:59:25;13.60;;;3.60;;
21987;SDS011;11158;53.404;-1.510;2023-01-05T10:02:00;19.85;;;4.78;;
21987;SDS011;11158;53.404;-1.510;2023-01-05T10:04:30;18.30;;;4.15;;
21987;SDS011;11158;53.404;-1.510;2023-01-05T10:07:07;19.27;;;3.58;;
21987;SDS011;11158;53.404;-1.510;2023-01-05T10:10:05;16.88;;;3.50;;
21987;SDS011;11158;53.404;-1.510;2023-01-05T10:12:46;24.08;;;3.92;;
21987;SDS011;11158;53.404;-1.510;2023-01-05T10:15:41;14.40;;;3.65;;
21987;SDS011;11158;53.404;-1.510;2023-01-05T10:18:11;14.25;;;3.65;;
21987;SDS011;11158;53.404;-1.510;2023-01-05T10:26:35;12.48;;;3.22;;
21987;SDS011;11158;53.404;-1.510;2023-01-05T10:29:10;12.10;;;3.42;;
21987;SDS011;11158;53.404;-1.510;2023-01-05T10:34:47;8.90;;;2.63;;
21987;SDS011;11158;53.404;-1.510;2023-01-05T10:45:28;10.52;;;3.40;;
21987;SDS011;11158;53.404;-1.510;2023-01-05T10:47:55;7.75;;;3.05;;
21987;SDS011;11158;53.404;-1.510;2023-01-05T10:53:08;10.48;;;3.53;;
21987;SDS011;11158;53.404;-1.510;2023-01-05T10:55:41;10.57;;;3.83;;
21987;SDS011;11158;53.404;-1.510;2023-01-05T11:03:48;9.95;;;3.25;;
21987;SDS011;11158;53.404;-1.510;2023-01-05T11:06:29;11.07;;;4.25;;
21987;SDS011;11158;53.404;-1.510;2023-01-05T11:11:51;9.30;;;3.53;;
21987;SDS011;11158;53.404;-1.510;2023-01-05T11:14:28;11.20;;;3.45;;
21987;SDS011;11158;53.404;-1.510;2023-01-05T11:17:06;11.02;;;3.40;;
21987;SDS011;11158;53.404;-1.510;2023-01-05T11:19:43;8.88;;;3.92;;
21987;SDS011;11158;53.404;-1.510;2023-01-05T11:25:32;8.50;;;4.25;;
21987;SDS011;11158;53.404;-1.510;2023-01-05T11:28:09;12.73;;;4.50;;
21987;SDS011;11158;53.404;-1.510;2023-01-05T11:30:40;16.95;;;4.85;;
21987;SDS011;11158;53.404;-1.510;2023-01-05T11:33:22;13.05;;;4.70;;
21987;SDS011;11158;53.404;-1.510;2023-01-05T11:35:50;14.10;;;5.15;;
21987;SDS011;11158;53.404;-1.510;2023-01-05T11:38:26;15.60;;;4.50;;
21987;SDS011;11158;53.404;-1.510;2023-01-05T11:40:54;15.10;;;4.75;;
21987;SDS011;11158;53.404;-1.510;2023-01-05T11:43:23;14.60;;;5.00;;
21987;SDS011;11158;53.404;-1.510;2023-01-05T11:45:53;13.50;;;4.50;;
21987;SDS011;11158;53.404;-1.510;2023-01-05T11:48:22;11.68;;;4.53;;
21987;SDS011;11158;53.404;-1.510;2023-01-05T11:50:55;12.85;;;3.70;;
21987;SDS011;11158;53.404;-1.510;2023-01-05T11:58:43;14.85;;;4.75;;
21987;SDS011;11158;53.404;-1.510;2023-01-05T12:09:30;10.88;;;3.60;;
21987;SDS011;11158;53.404;-1.510;2023-01-05T12:14:46;17.08;;;3.88;;
21987;SDS011;11158;53.404;-1.510;2023-01-05T12:17:19;9.68;;;3.08;;
21987;SDS011;11158;53.404;-1.510;2023-01-05T12:28:10;9.25;;;3.28;;
21987;SDS011;11158;53.404;-1.510;2023-01-05T12:38:51;10.80;;;3.45;;
21987;SDS011;11158;53.404;-1.510;2023-01-05T12:44:22;10.05;;;2.85;;
21987;SDS011;11158;53.404;-1.510;2023-01-05T12:49:29;8.40;;;2.50;;
21987;SDS011;11158;53.404;-1.510;2023-01-05T12:52:11;8.70;;;2.38;;
21987;SDS011;11158;53.404;-1.510;2023-01-05T12:55:01;6.75;;;2.25;;
21987;SDS011;11158;53.404;-1.510;2023-01-05T12:57:50;10.93;;;2.83;;
21987;SDS011;11158;53.404;-1.510;2023-01-05T13:00:24;9.32;;;3.03;;
21987;SDS011;11158;53.404;-1.510;2023-01-05T13:03:02;10.93;;;2.95;;
21987;SDS011;11158;53.404;-1.510;2023-01-05T13:05:38;10.35;;;2.63;;
21987;SDS011;11158;53.404;-1.510;2023-01-05T13:11:05;9.43;;;2.38;;
21987;SDS011;11158;53.404;-1.510;2023-01-05T13:14:04;7.73;;;2.73;;
21987;SDS011;11158;53.404;-1.510;2023-01-05T13:16:43;8.38;;;2.58;;
21987;SDS011;11158;53.404;-1.510;2023-01-05T13:22:03;12.43;;;2.35;;
21987;SDS011;11158;53.404;-1.510;2023-01-05T13:24:39;8.85;;;2.60;;
21987;SDS011;11158;53.404;-1.510;2023-01-05T13:27:15;6.03;;;1.80;;
21987;SDS011;11158;53.404;-1.510;2023-01-05T13:29:46;9.35;;;1.85;;
21987;SDS011;11158;53.404;-1.510;2023-01-05T13:38:02;8.80;;;1.92;;
21987;SDS011;11158;53.404;-1.510;2023-01-05T13:40:55;5.00;;;1.80;;
21987;SDS011;11158;53.404;-1.510;2023-01-05T13:54:16;5.63;;;2.28;;
21987;SDS011;11158;53.404;-1.510;2023-01-05T13:56:46;5.45;;;1.88;;
21987;SDS011;11158;53.404;-1.510;2023-01-05T13:59:27;8.85;;;2.38;;
21987;SDS011;11158;53.404;-1.510;2023-01-05T14:01:56;10.80;;;3.13;;
21987;SDS011;11158;53.404;-1.510;2023-01-05T14:04:26;8.05;;;2.08;;
21987;SDS011;11158;53.404;-1.510;2023-01-05T14:06:58;4.82;;;1.45;;
21987;SDS011;11158;53.404;-1.510;2023-01-05T14:20:30;6.93;;;1.90;;
21987;SDS011;11158;53.404;-1.510;2023-01-05T14:25:48;7.10;;;2.10;;
21987;SDS011;11158;53.404;-1.510;2023-01-05T14:39:20;10.48;;;3.20;;
21987;SDS011;11158;53.404;-1.510;2023-01-05T14:42:00;6.93;;;3.15;;
21987;SDS011;11158;53.404;-1.510;2023-01-05T14:44:31;7.45;;;2.80;;
21987;SDS011;11158;53.404;-1.510;2023-01-05T14:47:09;6.20;;;1.83;;
21987;SDS011;11158;53.404;-1.510;2023-01-05T14:49:36;5.28;;;1.60;;
21987;SDS011;11158;53.404;-1.510;2023-01-05T14:52:06;6.03;;;1.65;;
21987;SDS011;11158;53.404;-1.510;2023-01-05T15:02:37;5.63;;;1.65;;
21987;SDS011;11158;53.404;-1.510;2023-01-05T15:05:12;7.95;;;1.30;;
21987;SDS011;11158;53.404;-1.510;2023-01-05T15:07:54;8.40;;;1.98;;
21987;SDS011;11158;53.404;-1.510;2023-01-05T15:13:30;4.22;;;1.30;;
21987;SDS011;11158;53.404;-1.510;2023-01-05T15:16:47;5.35;;;1.20;;
21987;SDS011;11158;53.404;-1.510;2023-01-05T15:25:19;3.28;;;1.30;;
21987;SDS011;11158;53.404;-1.510;2023-01-05T15:27:44;7.82;;;2.25;;
21987;SDS011;11158;53.404;-1.510;2023-01-05T15:36:03;5.22;;;1.38;;
21987;SDS011;11158;53.404;-1.510;2023-01-05T15:38:30;3.63;;;1.10;;
21987;SDS011;11158;53.404;-1.510;2023-01-05T15:41:03;6.93;;;1.48;;
21987;SDS011;11158;53.404;-1.510;2023-01-05T15:43:32;5.43;;;1.30;;
21987;SDS011;11158;53.404;-1.510;2023-01-05T15:46:01;6.05;;;1.38;;
21987;SDS011;11158;53.404;-1.510;2023-01-05T15:48:39;2.05;;;1.10;;
21987;SDS011;11158;53.404;-1.510;2023-01-05T15:51:07;3.38;;;1.15;;
21987;SDS011;11158;53.404;-1.510;2023-01-05T15:53:38;4.30;;;1.33;;
21987;SDS011;11158;53.404;-1.510;2023-01-05T15:56:06;3.13;;;1.17;;
21987;SDS011;11158;53.404;-1.510;2023-01-05T15:58:50;4.25;;;1.10;;
21987;SDS011;11158;53.404;-1.510;2023-01-05T16:01:16;3.63;;;1.20;;
21987;SDS011;11158;53.404;-1.510;2023-01-05T16:03:43;2.42;;;1.00;;
21987;SDS011;11158;53.404;-1.510;2023-01-05T16:06:31;3.75;;;1.02;;
21987;SDS011;11158;53.404;-1.510;2023-01-05T16:08:58;1.85;;;0.90;;
21987;SDS011;11158;53.404;-1.510;2023-01-05T16:11:32;2.65;;;0.80;;
21987;SDS011;11158;53.404;-1.510;2023-01-05T16:14:07;3.45;;;1.13;;
21987;SDS011;11158;53.404;-1.510;2023-01-05T16:17:01;4.28;;;1.40;;
21987;SDS011;11158;53.404;-1.510;2023-01-05T16:22:11;6.43;;;1.52;;
21987;SDS011;11158;53.404;-1.510;2023-01-05T16:27:39;4.30;;;1.38;;
21987;SDS011;11158;53.404;-1.510;2023-01-05T16:30:51;5.88;;;1.30;;
21987;SDS011;11158;53.404;-1.510;2023-01-05T16:43:28;4.13;;;1.10;;
21987;SDS011;11158;53.404;-1.510;2023-01-05T16:48:45;5.90;;;1.80;;
21987;SDS011;11158;53.404;-1.510;2023-01-05T16:51:56;8.02;;;1.42;;
21987;SDS011;11158;53.404;-1.510;2023-01-05T16:56:45;3.53;;;1.52;;
21987;SDS011;11158;53.404;-1.510;2023-01-05T17:02:14;4.63;;;1.70;;
21987;SDS011;11158;53.404;-1.510;2023-01-05T17:04:54;4.22;;;1.60;;
21987;SDS011;11158;53.404;-1.510;2023-01-05T17:07:20;4.22;;;1.65;;
21987;SDS011;11158;53.404;-1.510;2023-01-05T17:09:46;10.57;;;2.15;;
21987;SDS011;11158;53.404;-1.510;2023-01-05T17:12:12;5.78;;;1.40;;
21987;SDS011;11158;53.404;-1.510;2023-01-05T17:14:38;4.43;;;1.42;;
21987;SDS011;11158;53.404;-1.510;2023-01-05T17:17:07;9.93;;;1.98;;
21987;SDS011;11158;53.404;-1.510;2023-01-05T17:19:35;10.32;;;1.55;;
21987;SDS011;11158;53.404;-1.510;2023-01-05T17:22:01;5.80;;;1.90;;
21987;SDS011;11158;53.404;-1.510;2023-01-05T17:24:29;8.02;;;2.33;;
21987;SDS011;11158;53.404;-1.510;2023-01-05T17:26:55;6.90;;;1.73;;
21987;SDS011;11158;53.404;-1.510;2023-01-05T17:29:21;8.52;;;1.88;;
21987;SDS011;11158;53.404;-1.510;2023-01-05T17:31:49;4.70;;;1.52;;
21987;SDS011;11158;53.404;-1.510;2023-01-05T17:34:15;8.50;;;2.40;;
21987;SDS011;11158;53.404;-1.510;2023-01-05T17:36:41;7.30;;;1.63;;
21987;SDS011;11158;53.404;-1.510;2023-01-05T17:39:12;5.63;;;1.70;;
21987;SDS011;11158;53.404;-1.510;2023-01-05T17:41:40;5.82;;;1.63;;
21987;SDS011;11158;53.404;-1.510;2023-01-05T17:44:06;6.05;;;1.80;;
21987;SDS011;11158;53.404;-1.510;2023-01-05T17:46:32;6.05;;;1.80;;
21987;SDS011;11158;53.404;-1.510;2023-01-05T17:49:01;5.22;;;1.20;;
21987;SDS011;11158;53.404;-1.510;2023-01-05T17:51:29;4.75;;;1.45;;
21987;SDS011;11158;53.404;-1.510;2023-01-05T17:53:55;4.55;;;1.20;;
21987;SDS011;11158;53.404;-1.510;2023-01-05T17:56:22;6.55;;;1.55;;
21987;SDS011;11158;53.404;-1.510;2023-01-05T17:58:48;4.32;;;1.33;;
21987;SDS011;11158;53.404;-1.510;2023-01-05T18:01:15;4.32;;;1.27;;